sensor_id;sensor_type;location;lat;lon;timestamp;P1;durP1;ratioP1;P2;durP2;ratioP2
665;SDS011;315;48.738;9.126;2023-12-20T00:00:54;2.63;;;2.07;;
665;SDS011;315;48.738;9.126;2023-12-20T00:03:19;2.07;;;1.97;;
665;SDS011;315;48.738;9.126;2023-12-20T00:05:45;2.03;;;1.93;;
665;SDS011;315;48.738;9.126;2023-12-20T00:08:12;2.50;;;1.50;;
665;SDS011;315;48.738;9.126;2023-12-20T00:10:37;2.03;;;1.63;;
665;SDS011;315;48.738;9.126;2023-12-20T00:13:03;2.33;;;1.90;;
665;SDS011;315;48.738;9.126;2023-12-20T00:15:28;1.70;;;1.60;;
665;SDS011;315;48.738;9.126;2023-12-20T00:17:54;1.93;;;1.53;;
665;SDS011;315;48.738;9.126;2023-12-20T00:20:19;2.23;;;2.03;;
665;SDS011;315;48.738;9.126;2023-12-20T00:22:45;1.80;;;1.30;;
665;SDS011;315;48.738;9.126;2023-12-20T00:25:11;1.90;;;1.80;;
665;SDS011;315;48.738;9.126;2023-12-20T00:27:36;1.90;;;1.80;;
665;SDS011;315;48.738;9.126;2023-12-20T00:30:02;1.60;;;1.50;;
665;SDS011;315;48.738;9.126;2023-12-20T00:32:27;1.47;;;1.27;;
665;SDS011;315;48.738;9.126;2023-12-20T00:34:53;1.53;;;1.43;;
665;SDS011;315;48.738;9.126;2023-12-20T00:37:18;1.27;;;1.17;;
665;SDS011;315;48.738;9.126;2023-12-20T00:39:44;6.17;;;1.77;;
665;SDS011;315;48.738;9.126;2023-12-20T00:42:09;1.80;;;1.70;;
665;SDS011;315;48.738;9.126;2023-12-20T00:44:35;1.80;;;1.70;;
665;SDS011;315;48.738;9.126;2023-12-20T00:47:00;1.97;;;1.50;;
665;SDS011;315;48.738;9.126;2023-12-20T00:49:26;1.47;;;1.37;;
665;SDS011;315;48.738;9.126;2023-12-20T00:51:52;1.47;;;1.33;;
665;SDS011;315;48.738;9.126;2023-12-20T00:54:17;1.70;;;1.60;;
665;SDS011;315;48.738;9.126;2023-12-20T00:56:43;1.53;;;1.43;;
665;SDS011;315;48.738;9.126;2023-12-20T00:59:09;2.07;;;1.97;;
665;SDS011;315;48.738;9.126;2023-12-20T01:01:34;1.93;;;1.80;;
665;SDS011;315;48.738;9.126;2023-12-20T01:04:00;1.70;;;1.60;;
665;SDS011;315;48.738;9.126;2023-12-20T01:06:25;1.57;;;1.47;;
665;SDS011;315;48.738;9.126;2023-12-20T01:08:51;2.93;;;1.97;;
665;SDS011;315;48.738;9.126;2023-12-20T01:11:16;2.43;;;1.47;;
665;SDS011;315;48.738;9.126;2023-12-20T01:13:42;1.77;;;1.40;;
665;SDS011;315;48.738;9.126;2023-12-20T01:16:10;3.00;;;1.77;;
665;SDS011;315;48.738;9.126;2023-12-20T01:18:37;2.43;;;1.40;;
665;SDS011;315;48.738;9.126;2023-12-20T01:21:03;2.10;;;1.83;;
665;SDS011;315;48.738;9.126;2023-12-20T01:23:29;2.03;;;1.67;;
665;SDS011;315;48.738;9.126;2023-12-20T01:25:55;2.13;;;1.93;;
665;SDS011;315;48.738;9.126;2023-12-20T01:28:21;2.73;;;1.70;;
665;SDS011;315;48.738;9.126;2023-12-20T01:30:46;2.47;;;1.93;;
665;SDS011;315;48.738;9.126;2023-12-20T01:33:12;2.80;;;2.60;;
665;SDS011;315;48.738;9.126;2023-12-20T01:35:37;2.20;;;2.00;;
665;SDS011;315;48.738;9.126;2023-12-20T01:38:03;2.67;;;1.67;;
665;SDS011;315;48.738;9.126;2023-12-20T01:40:28;2.00;;;1.80;;
665;SDS011;315;48.738;9.126;2023-12-20T01:42:58;1.80;;;1.70;;
665;SDS011;315;48.738;9.126;2023-12-20T01:45:24;2.73;;;2.00;;
665;SDS011;315;48.738;9.126;2023-12-20T01:47:50;3.30;;;2.10;;
665;SDS011;315;48.738;9.126;2023-12-20T01:50:15;2.07;;;1.70;;
665;SDS011;315;48.738;9.126;2023-12-20T01:52:42;2.50;;;1.90;;
665;SDS011;315;48.738;9.126;2023-12-20T01:55:09;2.47;;;1.73;;
665;SDS011;315;48.738;9.126;2023-12-20T01:57:39;1.77;;;1.67;;
665;SDS011;315;48.738;9.126;2023-12-20T02:00:06;2.43;;;1.47;;
665;SDS011;315;48.738;9.126;2023-12-20T02:02:34;1.87;;;1.70;;
665;SDS011;315;48.738;9.126;2023-12-20T02:05:03;4.77;;;2.17;;
665;SDS011;315;48.738;9.126;2023-12-20T02:07:29;3.50;;;1.63;;
665;SDS011;315;48.738;9.126;2023-12-20T02:09:56;1.57;;;1.30;;
665;SDS011;315;48.738;9.126;2023-12-20T02:12:22;1.87;;;1.47;;
665;SDS011;315;48.738;9.126;2023-12-20T02:14:48;2.00;;;1.57;;
665;SDS011;315;48.738;9.126;2023-12-20T02:17:14;2.30;;;0.90;;
665;SDS011;315;48.738;9.126;2023-12-20T02:19:40;1.70;;;1.60;;
665;SDS011;315;48.738;9.126;2023-12-20T02:22:11;1.30;;;1.20;;
665;SDS011;315;48.738;9.126;2023-12-20T02:24:37;1.23;;;1.13;;
665;SDS011;315;48.738;9.126;2023-12-20T02:27:03;1.67;;;1.37;;
665;SDS011;315;48.738;9.126;2023-12-20T02:29:32;0.90;;;0.90;;
665;SDS011;315;48.738;9.126;2023-12-20T02:31:58;1.83;;;1.00;;
665;SDS011;315;48.738;9.126;2023-12-20T02:34:24;1.80;;;1.70;;
665;SDS011;315;48.738;9.126;2023-12-20T02:36:49;1.10;;;1.00;;
665;SDS011;315;48.738;9.126;2023-12-20T02:39:15;2.00;;;1.13;;
665;SDS011;315;48.738;9.126;2023-12-20T02:41:41;1.40;;;1.00;;
665;SDS011;315;48.738;9.126;2023-12-20T02:44:07;1.17;;;0.90;;
665;SDS011;315;48.738;9.126;2023-12-20T02:46:32;0.90;;;0.80;;
665;SDS011;315;48.738;9.126;2023-12-20T02:48:58;0.87;;;0.77;;
665;SDS011;315;48.738;9.126;2023-12-20T02:51:23;2.60;;;1.40;;
665;SDS011;315;48.738;9.126;2023-12-20T02:53:49;0.70;;;0.70;;
665;SDS011;315;48.738;9.126;2023-12-20T02:56:14;1.27;;;1.00;;
665;SDS011;315;48.738;9.126;2023-12-20T02:58:40;1.20;;;1.10;;
665;SDS011;315;48.738;9.126;2023-12-20T03:01:05;1.57;;;1.30;;
665;SDS011;315;48.738;9.126;2023-12-20T03:03:31;1.27;;;1.17;;
665;SDS011;315;48.738;9.126;2023-12-20T03:05:57;1.10;;;0.90;;
665;SDS011;315;48.738;9.126;2023-12-20T03:08:23;0.80;;;0.70;;
665;SDS011;315;48.738;9.126;2023-12-20T03:10:48;1.10;;;1.00;;
665;SDS011;315;48.738;9.126;2023-12-20T03:13:14;0.97;;;0.83;;
665;SDS011;315;48.738;9.126;2023-12-20T03:15:40;0.80;;;0.80;;
665;SDS011;315;48.738;9.126;2023-12-20T03:18:05;1.37;;;0.90;;
665;SDS011;315;48.738;9.126;2023-12-20T03:20:31;1.10;;;1.00;;
665;SDS011;315;48.738;9.126;2023-12-20T03:23:00;1.37;;;1.10;;
665;SDS011;315;48.738;9.126;2023-12-20T03:25:26;1.00;;;1.00;;
665;SDS011;315;48.738;9.126;2023-12-20T03:27:52;1.20;;;1.10;;
665;SDS011;315;48.738;9.126;2023-12-20T03:30:17;1.40;;;1.30;;
665;SDS011;315;48.738;9.126;2023-12-20T03:32:43;1.60;;;1.30;;
665;SDS011;315;48.738;9.126;2023-12-20T03:35:09;1.83;;;1.30;;
665;SDS011;315;48.738;9.126;2023-12-20T03:37:34;1.67;;;1.20;;
665;SDS011;315;48.738;9.126;2023-12-20T03:40:00;1.80;;;1.10;;
665;SDS011;315;48.738;9.126;2023-12-20T03:42:26;2.00;;;0.77;;
665;SDS011;315;48.738;9.126;2023-12-20T03:44:51;1.13;;;0.50;;
665;SDS011;315;48.738;9.126;2023-12-20T03:47:17;0.50;;;0.40;;
665;SDS011;315;48.738;9.126;2023-12-20T03:49:42;1.00;;;0.63;;
665;SDS011;315;48.738;9.126;2023-12-20T03:52:08;0.60;;;0.40;;
665;SDS011;315;48.738;9.126;2023-12-20T03:54:34;0.70;;;0.53;;
665;SDS011;315;48.738;9.126;2023-12-20T03:57:00;0.60;;;0.47;;
665;SDS011;315;48.738;9.126;2023-12-20T03:59:26;0.60;;;0.50;;
665;SDS011;315;48.738;9.126;2023-12-20T04:01:51;0.60;;;0.50;;
665;SDS011;315;48.738;9.126;2023-12-20T04:04:17;0.50;;;0.40;;
665;SDS011;315;48.738;9.126;2023-12-20T04:06:42;0.87;;;0.87;;
665;SDS011;315;48.738;9.126;2023-12-20T04:09:08;0.40;;;0.40;;
665;SDS011;315;48.738;9.126;2023-12-20T04:11:37;0.40;;;0.40;;
665;SDS011;315;48.738;9.126;2023-12-20T04:14:02;1.03;;;0.50;;
665;SDS011;315;48.738;9.126;2023-12-20T04:16:29;0.40;;;0.40;;
665;SDS011;315;48.738;9.126;2023-12-20T04:18:55;1.23;;;0.40;;
665;SDS011;315;48.738;9.126;2023-12-20T04:21:21;0.73;;;0.50;;
665;SDS011;315;48.738;9.126;2023-12-20T04:23:46;0.67;;;0.60;;
665;SDS011;315;48.738;9.126;2023-12-20T04:26:12;0.70;;;0.60;;
665;SDS011;315;48.738;9.126;2023-12-20T04:28:37;0.70;;;0.40;;
665;SDS011;315;48.738;9.126;2023-12-20T04:31:03;0.60;;;0.53;;
665;SDS011;315;48.738;9.126;2023-12-20T04:33:28;0.63;;;0.50;;
665;SDS011;315;48.738;9.126;2023-12-20T04:35:54;1.87;;;0.90;;
665;SDS011;315;48.738;9.126;2023-12-20T04:38:19;2.13;;;0.53;;
665;SDS011;315;48.738;9.126;2023-12-20T04:40:45;1.03;;;0.70;;
665;SDS011;315;48.738;9.126;2023-12-20T04:43:10;0.60;;;0.60;;
665;SDS011;315;48.738;9.126;2023-12-20T04:45:35;1.37;;;1.20;;
665;SDS011;315;48.738;9.126;2023-12-20T04:48:01;0.80;;;0.70;;
665;SDS011;315;48.738;9.126;2023-12-20T04:50:27;0.60;;;0.60;;
665;SDS011;315;48.738;9.126;2023-12-20T04:52:53;2.77;;;0.50;;
665;SDS011;315;48.738;9.126;2023-12-20T04:55:18;0.70;;;0.50;;
665;SDS011;315;48.738;9.126;2023-12-20T04:57:44;1.93;;;0.67;;
665;SDS011;315;48.738;9.126;2023-12-20T05:00:09;0.50;;;0.50;;
665;SDS011;315;48.738;9.126;2023-12-20T05:02:36;1.00;;;0.70;;
665;SDS011;315;48.738;9.126;2023-12-20T05:05:01;0.60;;;0.50;;
665;SDS011;315;48.738;9.126;2023-12-20T05:07:27;0.87;;;0.60;;
665;SDS011;315;48.738;9.126;2023-12-20T05:09:53;2.50;;;0.73;;
665;SDS011;315;48.738;9.126;2023-12-20T05:12:18;0.73;;;0.60;;
665;SDS011;315;48.738;9.126;2023-12-20T05:14:44;0.60;;;0.50;;
665;SDS011;315;48.738;9.126;2023-12-20T05:17:10;1.20;;;0.60;;
665;SDS011;315;48.738;9.126;2023-12-20T05:19:36;1.23;;;0.70;;
665;SDS011;315;48.738;9.126;2023-12-20T05:22:01;1.57;;;1.10;;
665;SDS011;315;48.738;9.126;2023-12-20T05:24:27;0.80;;;0.70;;
665;SDS011;315;48.738;9.126;2023-12-20T05:26:53;1.03;;;0.70;;
665;SDS011;315;48.738;9.126;2023-12-20T05:29:18;0.70;;;0.70;;
665;SDS011;315;48.738;9.126;2023-12-20T05:31:44;1.30;;;0.67;;
665;SDS011;315;48.738;9.126;2023-12-20T05:34:09;1.77;;;0.73;;
665;SDS011;315;48.738;9.126;2023-12-20T05:36:35;1.83;;;0.90;;
665;SDS011;315;48.738;9.126;2023-12-20T05:39:01;2.60;;;1.00;;
665;SDS011;315;48.738;9.126;2023-12-20T05:41:28;5.10;;;0.80;;
665;SDS011;315;48.738;9.126;2023-12-20T05:43:55;1.00;;;0.90;;
665;SDS011;315;48.738;9.126;2023-12-20T05:46:22;1.90;;;0.90;;
665;SDS011;315;48.738;9.126;2023-12-20T05:48:48;2.30;;;0.73;;
665;SDS011;315;48.738;9.126;2023-12-20T05:51:14;2.07;;;1.67;;
665;SDS011;315;48.738;9.126;2023-12-20T05:53:40;1.83;;;1.20;;
665;SDS011;315;48.738;9.126;2023-12-20T05:56:05;1.37;;;1.00;;
665;SDS011;315;48.738;9.126;2023-12-20T05:58:32;1.93;;;0.70;;
665;SDS011;315;48.738;9.126;2023-12-20T06:00:58;0.80;;;0.80;;
665;SDS011;315;48.738;9.126;2023-12-20T06:03:24;6.30;;;1.27;;
665;SDS011;315;48.738;9.126;2023-12-20T06:05:49;10.53;;;1.23;;
665;SDS011;315;48.738;9.126;2023-12-20T06:08:15;1.70;;;1.03;;
665;SDS011;315;48.738;9.126;2023-12-20T06:10:40;4.13;;;1.17;;
665;SDS011;315;48.738;9.126;2023-12-20T06:13:06;1.70;;;1.10;;
665;SDS011;315;48.738;9.126;2023-12-20T06:15:32;2.10;;;1.80;;
665;SDS011;315;48.738;9.126;2023-12-20T06:17:57;3.40;;;1.40;;
665;SDS011;315;48.738;9.126;2023-12-20T06:20:23;1.90;;;1.47;;
665;SDS011;315;48.738;9.126;2023-12-20T06:22:48;1.30;;;1.20;;
665;SDS011;315;48.738;9.126;2023-12-20T06:25:14;2.13;;;1.03;;
665;SDS011;315;48.738;9.126;2023-12-20T06:27:40;2.00;;;1.27;;
665;SDS011;315;48.738;9.126;2023-12-20T06:30:06;1.47;;;1.30;;
665;SDS011;315;48.738;9.126;2023-12-20T06:32:34;1.83;;;1.40;;
665;SDS011;315;48.738;9.126;2023-12-20T06:35:00;8.83;;;3.47;;
665;SDS011;315;48.738;9.126;2023-12-20T06:37:26;1.60;;;1.50;;
665;SDS011;315;48.738;9.126;2023-12-20T06:39:51;3.33;;;1.40;;
665;SDS011;315;48.738;9.126;2023-12-20T06:42:17;2.43;;;2.20;;
665;SDS011;315;48.738;9.126;2023-12-20T06:44:42;1.50;;;1.30;;
665;SDS011;315;48.738;9.126;2023-12-20T06:47:08;1.73;;;1.50;;
665;SDS011;315;48.738;9.126;2023-12-20T06:49:33;1.60;;;1.50;;
665;SDS011;315;48.738;9.126;2023-12-20T06:51:59;3.20;;;1.40;;
665;SDS011;315;48.738;9.126;2023-12-20T06:54:24;1.80;;;1.70;;
665;SDS011;315;48.738;9.126;2023-12-20T06:56:50;2.30;;;1.10;;
665;SDS011;315;48.738;9.126;2023-12-20T06:59:15;4.37;;;1.30;;
665;SDS011;315;48.738;9.126;2023-12-20T07:01:41;2.30;;;1.83;;
665;SDS011;315;48.738;9.126;2023-12-20T07:04:07;3.60;;;1.93;;
665;SDS011;315;48.738;9.126;2023-12-20T07:06:32;2.60;;;1.60;;
665;SDS011;315;48.738;9.126;2023-12-20T07:08:57;1.90;;;1.80;;
665;SDS011;315;48.738;9.126;2023-12-20T07:11:23;2.80;;;2.00;;
665;SDS011;315;48.738;9.126;2023-12-20T07:13:49;1.40;;;1.30;;
665;SDS011;315;48.738;9.126;2023-12-20T07:16:14;5.00;;;1.60;;
665;SDS011;315;48.738;9.126;2023-12-20T07:18:40;2.53;;;1.13;;
665;SDS011;315;48.738;9.126;2023-12-20T07:21:06;1.67;;;1.20;;
665;SDS011;315;48.738;9.126;2023-12-20T07:23:33;1.57;;;1.47;;
665;SDS011;315;48.738;9.126;2023-12-20T07:25:58;1.43;;;1.33;;
665;SDS011;315;48.738;9.126;2023-12-20T07:28:24;1.50;;;1.40;;
665;SDS011;315;48.738;9.126;2023-12-20T07:30:50;1.97;;;1.87;;
665;SDS011;315;48.738;9.126;2023-12-20T07:33:15;2.93;;;1.80;;
665;SDS011;315;48.738;9.126;2023-12-20T07:35:41;1.87;;;1.77;;
665;SDS011;315;48.738;9.126;2023-12-20T07:38:06;3.67;;;2.00;;
665;SDS011;315;48.738;9.126;2023-12-20T07:40:32;3.90;;;2.83;;
665;SDS011;315;48.738;9.126;2023-12-20T07:42:57;3.20;;;2.60;;
665;SDS011;315;48.738;9.126;2023-12-20T07:45:23;7.50;;;5.93;;
665;SDS011;315;48.738;9.126;2023-12-20T07:47:49;3.80;;;3.40;;
665;SDS011;315;48.738;9.126;2023-12-20T07:50:15;3.80;;;3.40;;
665;SDS011;315;48.738;9.126;2023-12-20T07:52:40;4.37;;;3.27;;
665;SDS011;315;48.738;9.126;2023-12-20T07:55:06;4.63;;;4.20;;
665;SDS011;315;48.738;9.126;2023-12-20T07:57:32;4.13;;;3.73;;
665;SDS011;315;48.738;9.126;2023-12-20T07:59:57;6.00;;;3.47;;
665;SDS011;315;48.738;9.126;2023-12-20T08:02:23;4.50;;;4.10;;
665;SDS011;315;48.738;9.126;2023-12-20T08:04:49;5.50;;;4.90;;
665;SDS011;315;48.738;9.126;2023-12-20T08:07:14;5.00;;;4.50;;
665;SDS011;315;48.738;9.126;2023-12-20T08:09:40;3.80;;;3.50;;
665;SDS011;315;48.738;9.126;2023-12-20T08:12:05;4.63;;;4.23;;
665;SDS011;315;48.738;9.126;2023-12-20T08:14:31;6.53;;;5.40;;
665;SDS011;315;48.738;9.126;2023-12-20T08:16:56;5.10;;;4.40;;
665;SDS011;315;48.738;9.126;2023-12-20T08:19:22;4.80;;;4.40;;
665;SDS011;315;48.738;9.126;2023-12-20T08:21:48;4.50;;;4.17;;
665;SDS011;315;48.738;9.126;2023-12-20T08:24:13;5.07;;;4.63;;
665;SDS011;315;48.738;9.126;2023-12-20T08:26:39;4.50;;;4.10;;
665;SDS011;315;48.738;9.126;2023-12-20T08:29:04;5.20;;;4.70;;
665;SDS011;315;48.738;9.126;2023-12-20T08:31:30;5.37;;;4.10;;
665;SDS011;315;48.738;9.126;2023-12-20T08:33:55;4.77;;;4.37;;
665;SDS011;315;48.738;9.126;2023-12-20T08:36:21;10.10;;;8.03;;
665;SDS011;315;48.738;9.126;2023-12-20T08:38:48;8.60;;;5.30;;
665;SDS011;315;48.738;9.126;2023-12-20T08:41:14;4.93;;;4.47;;
665;SDS011;315;48.738;9.126;2023-12-20T08:43:40;5.53;;;4.53;;
665;SDS011;315;48.738;9.126;2023-12-20T08:46:06;4.70;;;4.30;;
665;SDS011;315;48.738;9.126;2023-12-20T08:48:31;5.67;;;4.20;;
665;SDS011;315;48.738;9.126;2023-12-20T08:50:57;5.20;;;3.50;;
665;SDS011;315;48.738;9.126;2023-12-20T08:53:22;4.57;;;4.20;;
665;SDS011;315;48.738;9.126;2023-12-20T08:55:48;8.40;;;5.10;;
665;SDS011;315;48.738;9.126;2023-12-20T08:58:13;7.03;;;5.10;;
665;SDS011;315;48.738;9.126;2023-12-20T09:00:39;7.33;;;4.53;;
665;SDS011;315;48.738;9.126;2023-12-20T09:03:05;4.77;;;4.10;;
665;SDS011;315;48.738;9.126;2023-12-20T09:05:30;6.60;;;4.90;;
665;SDS011;315;48.738;9.126;2023-12-20T09:07:56;5.90;;;4.30;;
665;SDS011;315;48.738;9.126;2023-12-20T09:10:22;5.67;;;3.90;;
665;SDS011;315;48.738;9.126;2023-12-20T09:12:51;3.30;;;2.77;;
665;SDS011;315;48.738;9.126;2023-12-20T09:15:20;2.20;;;2.10;;
665;SDS011;315;48.738;9.126;2023-12-20T09:17:45;8.43;;;4.90;;
665;SDS011;315;48.738;9.126;2023-12-20T09:20:11;3.70;;;2.70;;
665;SDS011;315;48.738;9.126;2023-12-20T09:22:38;2.67;;;2.47;;
665;SDS011;315;48.738;9.126;2023-12-20T09:25:04;4.00;;;3.23;;
665;SDS011;315;48.738;9.126;2023-12-20T09:27:30;3.10;;;2.80;;
665;SDS011;315;48.738;9.126;2023-12-20T09:29:56;2.07;;;1.80;;
665;SDS011;315;48.738;9.126;2023-12-20T09:32:21;4.10;;;2.43;;
665;SDS011;315;48.738;9.126;2023-12-20T09:34:47;3.40;;;2.57;;
665;SDS011;315;48.738;9.126;2023-12-20T09:37:13;2.70;;;1.90;;
665;SDS011;315;48.738;9.126;2023-12-20T09:39:38;3.10;;;2.40;;
665;SDS011;315;48.738;9.126;2023-12-20T09:42:05;2.37;;;2.23;;
665;SDS011;315;48.738;9.126;2023-12-20T09:44:31;1.87;;;1.77;;
665;SDS011;315;48.738;9.126;2023-12-20T09:47:04;7.43;;;2.27;;
665;SDS011;315;48.738;9.126;2023-12-20T09:49:30;2.40;;;1.70;;
665;SDS011;315;48.738;9.126;2023-12-20T09:51:57;3.80;;;1.93;;
665;SDS011;315;48.738;9.126;2023-12-20T09:54:24;2.80;;;1.83;;
665;SDS011;315;48.738;9.126;2023-12-20T09:56:50;2.90;;;1.53;;
665;SDS011;315;48.738;9.126;2023-12-20T09:59:16;2.17;;;1.97;;
665;SDS011;315;48.738;9.126;2023-12-20T10:01:42;2.40;;;1.70;;
665;SDS011;315;48.738;9.126;2023-12-20T10:04:08;3.73;;;2.13;;
665;SDS011;315;48.738;9.126;2023-12-20T10:06:37;4.33;;;2.23;;
665;SDS011;315;48.738;9.126;2023-12-20T10:09:06;2.70;;;2.50;;
665;SDS011;315;48.738;9.126;2023-12-20T10:11:32;2.13;;;1.77;;
665;SDS011;315;48.738;9.126;2023-12-20T10:13:59;4.60;;;2.10;;
665;SDS011;315;48.738;9.126;2023-12-20T10:16:29;2.70;;;1.83;;
665;SDS011;315;48.738;9.126;2023-12-20T10:18:55;3.07;;;1.70;;
665;SDS011;315;48.738;9.126;2023-12-20T10:21:24;2.60;;;1.80;;
665;SDS011;315;48.738;9.126;2023-12-20T10:23:51;2.90;;;2.40;;
665;SDS011;315;48.738;9.126;2023-12-20T10:26:21;2.50;;;2.10;;
665;SDS011;315;48.738;9.126;2023-12-20T10:28:51;8.30;;;2.50;;
665;SDS011;315;48.738;9.126;2023-12-20T10:31:28;3.40;;;2.17;;
665;SDS011;315;48.738;9.126;2023-12-20T10:33:55;4.03;;;2.37;;
665;SDS011;315;48.738;9.126;2023-12-20T10:36:23;2.77;;;1.90;;
665;SDS011;315;48.738;9.126;2023-12-20T10:38:51;2.97;;;1.90;;
665;SDS011;315;48.738;9.126;2023-12-20T10:41:18;2.00;;;1.77;;
665;SDS011;315;48.738;9.126;2023-12-20T10:43:55;5.40;;;1.90;;
665;SDS011;315;48.738;9.126;2023-12-20T10:46:29;2.50;;;1.90;;
665;SDS011;315;48.738;9.126;2023-12-20T10:48:57;2.30;;;1.87;;
665;SDS011;315;48.738;9.126;2023-12-20T10:51:23;4.43;;;2.20;;
665;SDS011;315;48.738;9.126;2023-12-20T10:53:51;2.03;;;1.80;;
665;SDS011;315;48.738;9.126;2023-12-20T10:56:18;2.97;;;1.70;;
665;SDS011;315;48.738;9.126;2023-12-20T10:58:47;3.70;;;1.80;;
665;SDS011;315;48.738;9.126;2023-12-20T11:01:14;1.90;;;1.73;;
665;SDS011;315;48.738;9.126;2023-12-20T11:03:42;5.00;;;1.93;;
665;SDS011;315;48.738;9.126;2023-12-20T11:06:18;3.80;;;1.60;;
665;SDS011;315;48.738;9.126;2023-12-20T11:08:47;4.83;;;2.23;;
665;SDS011;315;48.738;9.126;2023-12-20T11:11:29;4.27;;;1.90;;
665;SDS011;315;48.738;9.126;2023-12-20T11:14:23;3.93;;;2.57;;
665;SDS011;315;48.738;9.126;2023-12-20T11:17:05;2.20;;;1.93;;
665;SDS011;315;48.738;9.126;2023-12-20T11:19:38;4.83;;;3.10;;
665;SDS011;315;48.738;9.126;2023-12-20T11:22:31;3.27;;;2.40;;
665;SDS011;315;48.738;9.126;2023-12-20T11:24:59;11.30;;;5.70;;
665;SDS011;315;48.738;9.126;2023-12-20T11:27:33;4.83;;;3.10;;
665;SDS011;315;48.738;9.126;2023-12-20T11:29:59;2.73;;;1.80;;
665;SDS011;315;48.738;9.126;2023-12-20T11:34:56;4.23;;;2.00;;
665;SDS011;315;48.738;9.126;2023-12-20T11:37:29;3.93;;;2.20;;
665;SDS011;315;48.738;9.126;2023-12-20T11:40:02;3.90;;;2.13;;
665;SDS011;315;48.738;9.126;2023-12-20T11:42:32;3.33;;;1.90;;
665;SDS011;315;48.738;9.126;2023-12-20T11:44:59;3.97;;;2.03;;
665;SDS011;315;48.738;9.126;2023-12-20T11:47:27;5.07;;;1.97;;
665;SDS011;315;48.738;9.126;2023-12-20T11:49:53;1.77;;;1.50;;
665;SDS011;315;48.738;9.126;2023-12-20T11:52:20;2.37;;;2.17;;
665;SDS011;315;48.738;9.126;2023-12-20T11:54:46;5.30;;;1.83;;
665;SDS011;315;48.738;9.126;2023-12-20T11:57:12;5.60;;;2.60;;
665;SDS011;315;48.738;9.126;2023-12-20T11:59:38;2.13;;;1.67;;
665;SDS011;315;48.738;9.126;2023-12-20T12:02:04;3.73;;;2.50;;
665;SDS011;315;48.738;9.126;2023-12-20T12:04:29;2.90;;;1.80;;
665;SDS011;315;48.738;9.126;2023-12-20T12:06:55;4.43;;;2.00;;
665;SDS011;315;48.738;9.126;2023-12-20T12:09:20;2.67;;;1.83;;
665;SDS011;315;48.738;9.126;2023-12-20T12:11:46;6.00;;;2.00;;
665;SDS011;315;48.738;9.126;2023-12-20T12:14:11;2.80;;;2.10;;
665;SDS011;315;48.738;9.126;2023-12-20T12:16:37;3.80;;;2.27;;
665;SDS011;315;48.738;9.126;2023-12-20T12:19:03;2.60;;;2.00;;
665;SDS011;315;48.738;9.126;2023-12-20T12:21:29;7.00;;;2.70;;
665;SDS011;315;48.738;9.126;2023-12-20T12:24:05;4.13;;;2.50;;
665;SDS011;315;48.738;9.126;2023-12-20T12:26:34;3.27;;;1.63;;
665;SDS011;315;48.738;9.126;2023-12-20T12:29:00;2.93;;;1.90;;
665;SDS011;315;48.738;9.126;2023-12-20T12:31:25;5.17;;;2.27;;
665;SDS011;315;48.738;9.126;2023-12-20T12:33:51;2.93;;;2.70;;
665;SDS011;315;48.738;9.126;2023-12-20T12:36:17;4.50;;;2.20;;
665;SDS011;315;48.738;9.126;2023-12-20T12:38:43;6.53;;;2.20;;
665;SDS011;315;48.738;9.126;2023-12-20T12:41:09;5.23;;;2.20;;
665;SDS011;315;48.738;9.126;2023-12-20T12:43:37;6.10;;;2.07;;
665;SDS011;315;48.738;9.126;2023-12-20T12:46:02;6.07;;;2.20;;
665;SDS011;315;48.738;9.126;2023-12-20T12:48:28;7.17;;;2.73;;
665;SDS011;315;48.738;9.126;2023-12-20T12:50:54;3.47;;;1.67;;
665;SDS011;315;48.738;9.126;2023-12-20T12:53:22;3.77;;;2.17;;
665;SDS011;315;48.738;9.126;2023-12-20T12:55:47;3.13;;;2.17;;
665;SDS011;315;48.738;9.126;2023-12-20T12:58:13;3.10;;;1.77;;
665;SDS011;315;48.738;9.126;2023-12-20T13:00:38;4.60;;;2.10;;
665;SDS011;315;48.738;9.126;2023-12-20T13:03:04;4.13;;;1.77;;
665;SDS011;315;48.738;9.126;2023-12-20T13:05:29;3.57;;;1.70;;
665;SDS011;315;48.738;9.126;2023-12-20T13:07:55;4.90;;;1.80;;
665;SDS011;315;48.738;9.126;2023-12-20T13:10:21;5.03;;;1.87;;
665;SDS011;315;48.738;9.126;2023-12-20T13:12:47;1.80;;;1.70;;
665;SDS011;315;48.738;9.126;2023-12-20T13:15:12;3.37;;;1.33;;
665;SDS011;315;48.738;9.126;2023-12-20T13:17:38;2.70;;;1.83;;
665;SDS011;315;48.738;9.126;2023-12-20T13:20:05;5.70;;;2.30;;
665;SDS011;315;48.738;9.126;2023-12-20T13:22:31;3.50;;;1.57;;
665;SDS011;315;48.738;9.126;2023-12-20T13:24:56;2.83;;;1.57;;
665;SDS011;315;48.738;9.126;2023-12-20T13:27:22;3.53;;;2.13;;
665;SDS011;315;48.738;9.126;2023-12-20T13:29:48;4.37;;;1.83;;
665;SDS011;315;48.738;9.126;2023-12-20T13:32:13;8.63;;;2.67;;
665;SDS011;315;48.738;9.126;2023-12-20T13:34:38;9.23;;;3.00;;
665;SDS011;315;48.738;9.126;2023-12-20T13:37:04;4.00;;;1.70;;
665;SDS011;315;48.738;9.126;2023-12-20T13:39:29;7.20;;;1.90;;
665;SDS011;315;48.738;9.126;2023-12-20T13:41:56;3.73;;;1.97;;
665;SDS011;315;48.738;9.126;2023-12-20T13:44:22;4.60;;;2.13;;
665;SDS011;315;48.738;9.126;2023-12-20T13:46:47;2.20;;;1.60;;
665;SDS011;315;48.738;9.126;2023-12-20T13:49:15;2.90;;;1.43;;
665;SDS011;315;48.738;9.126;2023-12-20T13:51:40;4.63;;;3.17;;
665;SDS011;315;48.738;9.126;2023-12-20T13:54:06;2.50;;;1.20;;
665;SDS011;315;48.738;9.126;2023-12-20T13:56:31;4.17;;;1.53;;
665;SDS011;315;48.738;9.126;2023-12-20T13:58:58;3.83;;;1.30;;
665;SDS011;315;48.738;9.126;2023-12-20T14:01:24;2.20;;;1.20;;
665;SDS011;315;48.738;9.126;2023-12-20T14:03:51;3.20;;;2.00;;
665;SDS011;315;48.738;9.126;2023-12-20T14:06:17;3.03;;;2.50;;
665;SDS011;315;48.738;9.126;2023-12-20T14:08:42;4.03;;;1.80;;
665;SDS011;315;48.738;9.126;2023-12-20T14:11:08;4.13;;;1.87;;
665;SDS011;315;48.738;9.126;2023-12-20T14:13:34;3.70;;;1.80;;
665;SDS011;315;48.738;9.126;2023-12-20T14:16:00;1.57;;;1.30;;
665;SDS011;315;48.738;9.126;2023-12-20T14:18:26;4.70;;;1.77;;
665;SDS011;315;48.738;9.126;2023-12-20T14:20:52;6.03;;;1.83;;
665;SDS011;315;48.738;9.126;2023-12-20T14:23:18;1.53;;;1.43;;
665;SDS011;315;48.738;9.126;2023-12-20T14:25:44;1.57;;;1.30;;
665;SDS011;315;48.738;9.126;2023-12-20T14:28:10;8.17;;;2.20;;
665;SDS011;315;48.738;9.126;2023-12-20T14:30:37;4.17;;;1.70;;
665;SDS011;315;48.738;9.126;2023-12-20T14:33:03;8.03;;;2.50;;
665;SDS011;315;48.738;9.126;2023-12-20T14:35:29;2.33;;;1.73;;
665;SDS011;315;48.738;9.126;2023-12-20T14:37:54;8.63;;;2.27;;
665;SDS011;315;48.738;9.126;2023-12-20T14:40:20;3.80;;;1.53;;
665;SDS011;315;48.738;9.126;2023-12-20T14:42:45;2.90;;;1.87;;
665;SDS011;315;48.738;9.126;2023-12-20T14:45:11;5.90;;;2.07;;
665;SDS011;315;48.738;9.126;2023-12-20T14:47:38;7.20;;;1.37;;
665;SDS011;315;48.738;9.126;2023-12-20T14:50:04;4.60;;;2.10;;
665;SDS011;315;48.738;9.126;2023-12-20T14:52:31;2.73;;;1.80;;
665;SDS011;315;48.738;9.126;2023-12-20T14:54:58;2.87;;;2.10;;
665;SDS011;315;48.738;9.126;2023-12-20T14:57:24;2.90;;;2.43;;
665;SDS011;315;48.738;9.126;2023-12-20T14:59:51;5.13;;;2.30;;
665;SDS011;315;48.738;9.126;2023-12-20T15:02:16;4.00;;;2.13;;
665;SDS011;315;48.738;9.126;2023-12-20T15:04:42;2.97;;;1.70;;
665;SDS011;315;48.738;9.126;2023-12-20T15:07:08;5.00;;;2.37;;
665;SDS011;315;48.738;9.126;2023-12-20T15:09:33;4.30;;;2.40;;
665;SDS011;315;48.738;9.126;2023-12-20T15:11:59;2.50;;;1.80;;
665;SDS011;315;48.738;9.126;2023-12-20T15:14:25;3.00;;;1.80;;
665;SDS011;315;48.738;9.126;2023-12-20T15:16:51;2.63;;;1.70;;
665;SDS011;315;48.738;9.126;2023-12-20T15:19:17;5.70;;;2.70;;
665;SDS011;315;48.738;9.126;2023-12-20T15:21:42;5.63;;;2.80;;
665;SDS011;315;48.738;9.126;2023-12-20T15:24:11;5.37;;;2.27;;
665;SDS011;315;48.738;9.126;2023-12-20T15:26:41;5.47;;;2.80;;
665;SDS011;315;48.738;9.126;2023-12-20T15:29:08;3.17;;;2.37;;
665;SDS011;315;48.738;9.126;2023-12-20T15:31:34;9.30;;;2.30;;
665;SDS011;315;48.738;9.126;2023-12-20T15:34:02;6.43;;;2.57;;
665;SDS011;315;48.738;9.126;2023-12-20T15:36:28;6.50;;;1.87;;
665;SDS011;315;48.738;9.126;2023-12-20T15:38:53;3.20;;;2.00;;
665;SDS011;315;48.738;9.126;2023-12-20T15:41:19;3.37;;;2.37;;